Weather observations for the past three days for
Pierce County-Thun Field
| Date | Time (pdt) | Wind (mph) | Vis. (mi.) | Weather | Sky Cond. | Temperature (ºF) | Relative Humidity | Wind Chill (°F) | Heat Index (°F) | Pressure | Precipitation (in) | ||||||
|---|---|---|---|---|---|---|---|---|---|---|---|---|---|---|---|---|---|
| Air | Dwpt | 6 hour | altimeter (in) | sea level (mb) | 1 hr | 3 hr | 6 hr | ||||||||||
| Max. | Min. | ||||||||||||||||
| 01 | 13:15 | Calm | 10.00 | Overcast | OVC032 | 68 | 55.4 | 64% | 29.85 | 0.0 | |||||||
| 01 | 12:55 | Calm | 10.00 | Overcast | BKN027 OVC035 | 66.2 | 55.4 | 68% | 29.85 | 0.0 | |||||||
| 01 | 12:35 | Vrbl 7 | 10.00 | Overcast | FEW026 OVC034 | 68 | 55.4 | 64% | 29.85 | 0.0 | |||||||
| 01 | 12:15 | Vrbl 6 G 13 | 10.00 | Overcast | BKN025 OVC032 | 66.2 | 55.4 | 68% | 29.85 | 0.0 | |||||||
| 01 | 11:55 | Calm | 10.00 | Overcast | OVC025 | 66.2 | 55.4 | 68% | 29.86 | 0.0 | |||||||
| 01 | 11:35 | Calm | 10.00 | Overcast | OVC025 | 66.2 | 57.2 | 73% | 29.86 | 0.0 | |||||||
| 01 | 11:15 | Vrbl 3 | 10.00 | Overcast | OVC022 | 64.4 | 57.2 | 78% | 29.86 | 0.0 | |||||||
| 01 | 10:55 | Calm | 10.00 | Overcast | BKN023 OVC028 | 64.4 | 57.2 | 78% | 29.85 | 0.0 | |||||||
| 01 | 10:35 | Vrbl 3 | 10.00 | Overcast | SCT021 OVC028 | 64.4 | 57.2 | 78% | 29.85 | 0.0 | |||||||
| 01 | 10:15 | Calm | 10.00 | Overcast | SCT018 OVC027 | 64.4 | 57.2 | 78% | 29.85 | 0.0 | |||||||
| 01 | 09:55 | Calm | 10.00 | Overcast | BKN018 BKN024 OVC028 | 62.6 | 57.2 | 83% | 29.85 | 0.0 | |||||||
| 01 | 09:35 | Calm | 10.00 | Overcast | BKN018 OVC023 | 60.8 | 57.2 | 88% | 29.85 | 0.0 | |||||||
| 01 | 09:15 | Calm | 10.00 | Overcast | OVC018 | 60.8 | 57.2 | 88% | 29.86 | 0.0 | |||||||
| 01 | 08:55 | Calm | 10.00 | Overcast | OVC016 | 59 | 57.2 | 94% | 29.86 | 0.0 | |||||||
| 01 | 08:15 | Calm | 10.00 | A Few Clouds | FEW015 | 57.2 | 57.2 | 100% | 29.86 | 0.0 | |||||||
| 01 | 07:55 | Calm | 10.00 | A Few Clouds | FEW011 | 57.2 | 57.2 | 100% | 29.85 | 0.0 | |||||||
| 01 | 07:35 | Calm | 10.00 | Light Drizzle | BKN011 | 55.4 | 55.4 | 100% | 29.85 | 0.0 | |||||||
| 01 | 07:15 | Calm | 10.00 | Light Drizzle | SCT012 | 55.4 | 55.4 | 100% | 29.85 | 0.0 | |||||||
| 01 | 06:55 | Calm | 10.00 | Light Drizzle | CLR | 55.4 | 55.4 | 100% | 29.85 | 0.0 | |||||||
| 01 | 06:35 | Calm | 10.00 | Light Drizzle | FEW050 | 55.4 | 55.4 | 100% | 29.84 | 0.0 | |||||||
| 01 | 06:15 | Calm | 10.00 | Light Drizzle | BKN050 OVC060 | 53.6 | 53.6 | 100% | 29.84 | 0.0 | |||||||
| 01 | 05:55 | Calm | 10.00 | Light Drizzle | FEW026 BKN050 OVC060 | 51.8 | 51.8 | 100% | 29.84 | 0.0 | |||||||
| 01 | 05:35 | Calm | 10.00 | Mostly Cloudy | FEW027 SCT039 BKN047 | 51.8 | 51.8 | 100% | 29.84 | 0.0 | |||||||
| 01 | 05:15 | Calm | 10.00 | Overcast | FEW041 OVC055 | 53.6 | 53.6 | 100% | 29.84 | 0.0 | |||||||
| 01 | 04:55 | Calm | 10.00 | Overcast | FEW042 BKN055 OVC110 | 53.6 | 53.6 | 100% | 29.83 | 0.0 | |||||||
| 01 | 04:35 | Calm | 10.00 | Overcast | OVC110 | 53.6 | 53.6 | 100% | 29.83 | 0.0 | |||||||
| 01 | 04:15 | Calm | 10.00 | Overcast | FEW055 FEW070 OVC110 | 53.6 | 53.6 | 100% | 29.82 | 0.0 | |||||||
| 01 | 03:55 | Calm | 10.00 | Mostly Cloudy | FEW037 SCT050 BKN055 | 53.6 | 53.6 | 100% | 29.82 | 0.0 | |||||||
| 01 | 03:35 | Calm | 10.00 | Mostly Cloudy | FEW034 SCT041 BKN050 | 53.6 | 53.6 | 100% | 29.82 | 0.0 | |||||||
| 01 | 03:15 | Calm | 10.00 | Mostly Cloudy | FEW028 SCT039 BKN050 | 53.6 | 53.6 | 100% | 29.82 | 0.0 | |||||||
| 01 | 02:55 | Calm | 10.00 | Overcast | FEW031 SCT036 OVC070 | 53.6 | 53.6 | 100% | 29.81 | 0.0 | |||||||
| 01 | 02:35 | Calm | 10.00 | Overcast | OVC065 | 53.6 | 53.6 | 100% | 29.81 | 0.0 | |||||||
| 01 | 02:15 | Calm | 10.00 | Overcast | OVC070 | 55.4 | 53.6 | 94% | 29.81 | 0.0 | |||||||
| 01 | 01:55 | Calm | 10.00 | Overcast | OVC075 | 55.4 | 53.6 | 94% | 29.81 | 0.0 | |||||||
| 01 | 01:35 | Calm | 10.00 | Overcast | OVC075 | 55.4 | 55.4 | 100% | 29.81 | 0.0 | |||||||
| 01 | 01:15 | Calm | 10.00 | Overcast | OVC075 | 55.4 | 55.4 | 100% | 29.81 | 0.0 | |||||||
| 01 | 00:55 | Calm | 10.00 | Overcast | OVC075 | 55.4 | 55.4 | 100% | 29.8 | 0.0 | |||||||
| 01 | 00:35 | Calm | 10.00 | Overcast | OVC080 | 55.4 | 55.4 | 100% | 29.79 | 0.0 | |||||||
| 01 | 00:15 | Calm | 10.00 | Overcast | FEW050 OVC080 | 55.4 | 55.4 | 100% | 29.79 | 0.0 | |||||||
| 31 | 23:55 | Calm | 10.00 | Mostly Cloudy | SCT050 BKN080 | 57.2 | 53.6 | 88% | 29.79 | 0.0 | |||||||
| 31 | 23:35 | Calm | 10.00 | Mostly Cloudy | BKN050 | 57.2 | 55.4 | 94% | 29.79 | 0.0 | |||||||
| 31 | 23:15 | Calm | 10.00 | Mostly Cloudy | BKN050 BKN060 | 57.2 | 55.4 | 94% | 29.79 | 0.0 | |||||||
| 31 | 22:55 | Calm | 10.00 | Mostly Cloudy | BKN050 BKN060 | 57.2 | 55.4 | 94% | 29.8 | 0.0 | |||||||
| 31 | 22:35 | Calm | 10.00 | Mostly Cloudy | BKN050 BKN060 | 59 | 55.4 | 88% | 29.8 | 0.0 | |||||||
| 31 | 22:15 | Calm | 10.00 | Mostly Cloudy | BKN050 BKN060 | 59 | 55.4 | 88% | 29.8 | 0.0 | |||||||
| 31 | 21:55 | Calm | 10.00 | Mostly Cloudy | FEW044 BKN050 | 60.8 | 55.4 | 83% | 29.8 | 0.0 | |||||||
| 31 | 21:35 | Calm | 10.00 | Mostly Cloudy | FEW027 BKN050 | 60.8 | 55.4 | 83% | 29.8 | 0.0 | |||||||
| 31 | 21:15 | Calm | 10.00 | Overcast | OVC049 | 62.6 | 55.4 | 77% | 29.8 | 0.0 | |||||||
| 31 | 20:55 | Calm | 10.00 | Mostly Cloudy | BKN049 | 64.4 | 55.4 | 73% | 29.8 | 0.0 | |||||||
| 31 | 20:35 | Calm | 10.00 | Partly Cloudy | SCT050 | 64.4 | 55.4 | 73% | 29.8 | 0.0 | |||||||
| 31 | 20:15 | Calm | 10.00 | Fair | CLR | 64.4 | 55.4 | 73% | 29.79 | 0.0 | |||||||
| 31 | 19:55 | Calm | 10.00 | Fair | CLR | 68 | 53.6 | 60% | 29.78 | 0.0 | |||||||
| 31 | 19:35 | Calm | 10.00 | Fair | CLR | 69.8 | 53.6 | 57% | 29.78 | 0.0 | |||||||
| 31 | 19:15 | Calm | 10.00 | Fair | CLR | 71.6 | 51.8 | 50% | 29.79 | 0.0 | |||||||
| 31 | 18:55 | Calm | 10.00 | Fair | CLR | 71.6 | 51.8 | 50% | 29.79 | 0.0 | |||||||
| 31 | 18:35 | Calm | 10.00 | Fair | CLR | 73.4 | 51.8 | 47% | 29.79 | 0.0 | |||||||
| 31 | 18:15 | Calm | 10.00 | Fair | CLR | 75.2 | 51.8 | 44% | 78 | 29.79 | 0.0 | ||||||
| 31 | 17:55 | Calm | 10.00 | Fair | CLR | 77 | 51.8 | 42% | 78 | 29.79 | 0.0 | ||||||
| 31 | 17:35 | Calm | 10.00 | Fair | CLR | 77 | 51.8 | 42% | 78 | 29.79 | 0.0 | ||||||
| 31 | 17:15 | Calm | 10.00 | Fair | CLR | 77 | 51.8 | 42% | 78 | 29.79 | 0.0 | ||||||
| 31 | 16:55 | Vrbl 3 | 10.00 | Fair | CLR | 77 | 51.8 | 42% | 78 | 29.8 | 0.0 | ||||||
| 31 | 16:35 | Calm | 10.00 | Fair | CLR | 78.8 | 51.8 | 39% | 79 | 29.8 | 0.0 | ||||||
| 31 | 16:15 | Vrbl 5 | 10.00 | Fair | CLR | 77 | 51.8 | 42% | 78 | 29.81 | 0.0 | ||||||
| 31 | 15:55 | Vrbl 6 | 10.00 | Fair | CLR | 77 | 51.8 | 42% | 78 | 29.81 | 0.0 | ||||||
| 31 | 15:35 | Vrbl 3 | 10.00 | Fair | CLR | 78.8 | 51.8 | 39% | 79 | 29.82 | 0.0 | ||||||
| 31 | 15:15 | Calm | 10.00 | Fair | CLR | 77 | 53.6 | 44% | 78 | 29.82 | 0.0 | ||||||
| 31 | 14:55 | Calm | 10.00 | Fair | CLR | 77 | 53.6 | 44% | 78 | 29.83 | 0.0 | ||||||
| 31 | 14:35 | Calm | 10.00 | Fair | CLR | 75.2 | 53.6 | 47% | 78 | 29.83 | 0.0 | ||||||
| 31 | 14:15 | Calm | 10.00 | Fair | CLR | 75.2 | 53.6 | 47% | 78 | 29.84 | 0.0 | ||||||
| 31 | 13:55 | Calm | 10.00 | Fair | CLR | 75.2 | 53.6 | 47% | 78 | 29.85 | 0.0 | ||||||
| 31 | 13:35 | Vrbl 3 | 10.00 | Fair | CLR | 75.2 | 53.6 | 47% | 78 | 29.85 | 0.0 | ||||||
| 31 | 13:15 | Calm | 10.00 | Fair | CLR | 73.4 | 53.6 | 50% | 29.86 | 0.0 | |||||||
| 31 | 12:55 | Calm | 10.00 | Fair | CLR | 73.4 | 53.6 | 50% | 29.87 | 0.0 | |||||||
| 31 | 12:35 | Calm | 10.00 | Fair | CLR | 73.4 | 53.6 | 50% | 29.88 | 0.0 | |||||||
| 31 | 12:15 | Calm | 10.00 | Fair | CLR | 71.6 | 53.6 | 53% | 29.89 | 0.0 | |||||||
| 31 | 11:55 | Calm | 10.00 | Fair | CLR | 71.6 | 53.6 | 53% | 29.89 | 0.0 | |||||||
| 31 | 11:35 | Vrbl 5 | 0.00 | Fair | CLR | 69.8 | 53.6 | 57% | 29.9 | 0.0 | |||||||
| 31 | 11:15 | Calm | 10.00 | Fair | CLR | 68 | 51.8 | 56% | 29.91 | 0.0 | |||||||
| 31 | 10:35 | Calm | 10.00 | Fair | CLR | 66.2 | 51.8 | 60% | 29.92 | 0.0 | |||||||
| 31 | 10:15 | Calm | 10.00 | Fair | CLR | 64.4 | 53.6 | 68% | 29.92 | 0.0 | |||||||
| 31 | 09:55 | Calm | 10.00 | Fair | CLR | 64.4 | 53.6 | 68% | 29.92 | 0.0 | |||||||
| 31 | 09:35 | Calm | 10.00 | Fair | CLR | 62.6 | 53.6 | 73% | 29.93 | 0.0 | |||||||
| 31 | 09:15 | Calm | 10.00 | Fair | CLR | 62.6 | 55.4 | 77% | 29.94 | 0.0 | |||||||
| 31 | 08:55 | Calm | 10.00 | Fair | CLR | 60.8 | 53.6 | 77% | 29.94 | 0.0 | |||||||
| 31 | 08:35 | Calm | 10.00 | Fair | CLR | 59 | 55.4 | 88% | 29.94 | 0.0 | |||||||
| 31 | 08:15 | Calm | 10.00 | Fair | CLR | 57.2 | 53.6 | 88% | 29.95 | 0.0 | |||||||
| 31 | 07:55 | Calm | 10.00 | NULL | NULL | 53.6 | 53.6 | 100% | 29.95 | 0.0 | |||||||
| 31 | 07:35 | Calm | 0.00 | NULL | NULL | 0 | 0 | 0% | 29.95 | 0.0 | |||||||
| 31 | 06:55 | Calm | 10.00 | Fair | CLR | 48.2 | 48.2 | 100% | 29.95 | 0.0 | |||||||
| 31 | 06:35 | Calm | 10.00 | Fair | CLR | 48.2 | 48.2 | 100% | 29.95 | 0.0 | |||||||
| 31 | 06:15 | Calm | 10.00 | Fair | CLR | 48.2 | 48.2 | 100% | 29.95 | 0.0 | |||||||
| 31 | 05:55 | Calm | 10.00 | Fair | CLR | 48.2 | 48.2 | 100% | 29.95 | 0.0 | |||||||
| 31 | 05:35 | Calm | 10.00 | Fair | CLR | 48.2 | 48.2 | 100% | 29.96 | 0.0 | |||||||
| 31 | 05:15 | Calm | 10.00 | Fair | CLR | 48.2 | 48.2 | 100% | 29.96 | 0.0 | |||||||
| 31 | 04:55 | Calm | 10.00 | Fair | CLR | 48.2 | 48.2 | 100% | 29.96 | 0.0 | |||||||
| 31 | 04:35 | Calm | 10.00 | Fair | CLR | 50 | 50 | 100% | 29.96 | 0.0 | |||||||
| 31 | 03:55 | Calm | 10.00 | Fair | CLR | 50 | 50 | 100% | 29.97 | 0.0 | |||||||
| 31 | 03:35 | Calm | 10.00 | Fair | CLR | 50 | 50 | 100% | 29.98 | 0.0 | |||||||
| 31 | 03:15 | Calm | 10.00 | Fair | CLR | 50 | 50 | 100% | 29.98 | 0.0 | |||||||
| 31 | 02:55 | Calm | 10.00 | Fair | CLR | 51.8 | 51.8 | 100% | 29.98 | 0.0 | |||||||
| 31 | 02:35 | Calm | 10.00 | Fair | CLR | 51.8 | 51.8 | 100% | 29.99 | 0.0 | |||||||
| 31 | 02:15 | Calm | 10.00 | Fair | CLR | 51.8 | 51.8 | 100% | 30 | 0.0 | |||||||
| 31 | 01:55 | Calm | 10.00 | Fair | CLR | 51.8 | 51.8 | 100% | 30 | 0.0 | |||||||
| 31 | 01:35 | Calm | 10.00 | Fair | CLR | 51.8 | 51.8 | 100% | 30 | 0.0 | |||||||
| 31 | 01:15 | Calm | 10.00 | Fair | CLR | 51.8 | 51.8 | 100% | 30.01 | 0.0 | |||||||
| 31 | 00:55 | Calm | 10.00 | Fair | CLR | 51.8 | 51.8 | 100% | 30.01 | 0.0 | |||||||
| 31 | 00:35 | Calm | 10.00 | Fair | CLR | 53.6 | 51.8 | 94% | 30.01 | 0.0 | |||||||
| 31 | 00:15 | Calm | 10.00 | Fair | CLR | 53.6 | 51.8 | 94% | 30.02 | 0.0 | |||||||
| 30 | 23:55 | Calm | 10.00 | Fair | CLR | 53.6 | 51.8 | 94% | 30.02 | 0.0 | |||||||
| 30 | 23:35 | Calm | 10.00 | Fair | CLR | 55.4 | 51.8 | 88% | 30.03 | 0.0 | |||||||
| 30 | 23:15 | Calm | 0.00 | Fair | CLR | 55.4 | 50 | 82% | 30.04 | 0.0 | |||||||
| 30 | 22:55 | Calm | 10.00 | Fair | CLR | 55.4 | 50 | 82% | 30.04 | 0.0 | |||||||
| 30 | 22:35 | Calm | 10.00 | Fair | CLR | 55.4 | 50 | 82% | 30.05 | 0.0 | |||||||
| 30 | 22:15 | Calm | 10.00 | Fair | CLR | 57.2 | 50 | 77% | 30.05 | 0.0 | |||||||
| 30 | 21:55 | Calm | 10.00 | Fair | CLR | 59 | 50 | 72% | 30.05 | 0.0 | |||||||
| 30 | 21:35 | Calm | 10.00 | Fair | CLR | 59 | 50 | 72% | 30.05 | 0.0 | |||||||
| 30 | 21:15 | Calm | 10.00 | Fair | CLR | 62.6 | 48.2 | 60% | 30.06 | 0.0 | |||||||
| 30 | 20:55 | Calm | 10.00 | Fair | CLR | 62.6 | 48.2 | 60% | 30.06 | 0.0 | |||||||
| 30 | 20:35 | Calm | 10.00 | Fair | CLR | 60.8 | 50 | 68% | 30.05 | 0.0 | |||||||
| 30 | 20:15 | Calm | 10.00 | Fair | CLR | 62.6 | 50 | 64% | 30.05 | 0.0 | |||||||
| 30 | 19:55 | Calm | 10.00 | Fair | CLR | 64.4 | 48.2 | 56% | 30.05 | 0.0 | |||||||
| 30 | 19:35 | Calm | 10.00 | Fair | CLR | 66.2 | 46.4 | 49% | 30.05 | 0.0 | |||||||
| 30 | 19:15 | Calm | 10.00 | Fair | CLR | 68 | 46.4 | 46% | 30.06 | 0.0 | |||||||
| 30 | 18:55 | Calm | 10.00 | Fair | CLR | 69.8 | 46.4 | 43% | 30.06 | 0.0 | |||||||
| 30 | 18:35 | Calm | 10.00 | Fair | CLR | 71.6 | 46.4 | 41% | 30.06 | 0.0 | |||||||
| 30 | 18:15 | Calm | 10.00 | Fair | CLR | 71.6 | 46.4 | 41% | 30.07 | 0.0 | |||||||
| 30 | 17:55 | Calm | 10.00 | Fair | CLR | 71.6 | 48.2 | 44% | 30.07 | 0.0 | |||||||
| 30 | 17:35 | Calm | 10.00 | Fair | CLR | 71.6 | 46.4 | 41% | 30.07 | 0.0 | |||||||
| 30 | 17:15 | Calm | 10.00 | Fair | CLR | 71.6 | 46.4 | 41% | 30.08 | 0.0 | |||||||
| 30 | 16:55 | Calm | 10.00 | Fair | CLR | 73.4 | 48.2 | 41% | 30.08 | 0.0 | |||||||
| 30 | 16:35 | Calm | 10.00 | Fair | CLR | 73.4 | 46.4 | 38% | 30.09 | 0.0 | |||||||
| 30 | 16:15 | Calm | 10.00 | Fair | CLR | 71.6 | 46.4 | 41% | 30.09 | 0.0 | |||||||
| 30 | 15:55 | Calm | 10.00 | A Few Clouds | FEW046 | 71.6 | 46.4 | 41% | 30.09 | 0.0 | |||||||
| 30 | 15:35 | Vrbl 6 | 10.00 | Mostly Cloudy | BKN046 | 71.6 | 48.2 | 44% | 30.1 | 0.0 | |||||||
| 30 | 15:15 | Calm | 10.00 | Mostly Cloudy | BKN045 | 71.6 | 48.2 | 44% | 30.11 | 0.0 | |||||||
| 30 | 14:55 | Calm | 10.00 | A Few Clouds | FEW044 | 69.8 | 48.2 | 46% | 30.11 | 0.0 | |||||||
| 30 | 14:35 | Calm | 10.00 | Partly Cloudy | SCT041 | 68 | 50 | 53% | 30.12 | 0.0 | |||||||
| 30 | 14:15 | Calm | 10.00 | Mostly Cloudy | BKN042 BKN049 | 69.8 | 50 | 50% | 30.12 | 0.0 | |||||||
| 30 | 13:55 | Calm | 10.00 | A Few Clouds | FEW044 | 68 | 48.2 | 49% | 30.13 | 0.0 | |||||||
| 30 | 13:35 | Calm | 10.00 | Mostly Cloudy | SCT034 BKN043 | 68 | 50 | 53% | 30.13 | 0.0 | |||||||
| 30 | 13:15 | Calm | 10.00 | Mostly Cloudy | SCT034 BKN043 | 68 | 50 | 53% | 30.14 | 0.0 | |||||||
| 30 | 12:55 | Calm | 10.00 | Mostly Cloudy | FEW030 BKN039 BKN045 | 64.4 | 51.8 | 64% | 30.14 | 0.0 | |||||||
| 30 | 12:35 | Calm | 10.00 | Mostly Cloudy | BKN029 BKN037 | 64.4 | 51.8 | 64% | 30.14 | 0.0 | |||||||
| 30 | 12:15 | Calm | 10.00 | Mostly Cloudy | SCT027 BKN035 | 66.2 | 51.8 | 60% | 30.14 | 0.0 | |||||||
| 30 | 11:55 | Calm | 10.00 | Overcast | BKN025 OVC035 | 64.4 | 51.8 | 64% | 30.14 | 0.0 | |||||||
| 30 | 11:35 | Calm | 10.00 | Overcast | BKN024 OVC033 | 62.6 | 51.8 | 68% | 30.15 | 0.0 | |||||||
| 30 | 11:15 | Calm | 10.00 | Mostly Cloudy | SCT023 SCT028 BKN033 | 62.6 | 51.8 | 68% | 30.15 | 0.0 | |||||||
| 30 | 10:55 | Calm | 10.00 | Mostly Cloudy | FEW021 BKN034 | 62.6 | 51.8 | 68% | 30.15 | 0.0 | |||||||
| 30 | 10:35 | Calm | 10.00 | Mostly Cloudy | SCT020 BKN036 | 62.6 | 51.8 | 68% | 30.15 | 0.0 | |||||||
| 30 | 10:15 | Calm | 10.00 | Overcast | BKN019 OVC038 | 60.8 | 51.8 | 72% | 30.15 | 0.0 | |||||||
| 30 | 09:55 | Calm | 10.00 | Overcast | BKN020 OVC038 | 59 | 51.8 | 77% | 30.15 | 0.0 | |||||||
| 30 | 09:35 | Calm | 10.00 | Overcast | BKN019 OVC039 | 60.8 | 51.8 | 72% | 30.15 | 0.0 | |||||||
| 30 | 09:15 | SW 5 | 10.00 | Overcast | SCT018 OVC039 | 59 | 51.8 | 77% | 30.15 | 0.0 | |||||||
| 30 | 08:55 | Calm | 0.00 | Overcast | SCT018 OVC038 | 59 | 50 | 72% | 30.15 | 0.0 | |||||||
| 30 | 08:35 | Calm | 10.00 | Overcast | BKN018 OVC036 | 59 | 50 | 72% | 30.15 | 0.0 | |||||||
| 30 | 08:15 | Calm | 10.00 | Overcast | BKN019 OVC034 | 57.2 | 48.2 | 72% | 30.15 | 0.0 | |||||||
| 30 | 07:55 | Calm | 10.00 | Overcast | SCT020 OVC033 | 55.4 | 48.2 | 77% | 30.15 | 0.0 | |||||||
| 30 | 07:35 | Calm | 10.00 | Overcast | BKN018 OVC038 | 51.8 | 48.2 | 88% | 30.14 | 0.0 | |||||||
| 30 | 07:15 | Calm | 10.00 | Overcast | FEW018 OVC037 | 51.8 | 50 | 94% | 30.14 | 0.0 | |||||||
| 30 | 06:55 | Calm | 10.00 | Mostly Cloudy | SCT033 BKN039 BKN055 | 51.8 | 48.2 | 88% | 30.13 | 0.0 | |||||||
| 30 | 06:35 | Calm | 10.00 | Overcast | FEW037 OVC055 | 51.8 | 48.2 | 88% | 30.13 | 0.0 | |||||||
| 30 | 06:15 | Calm | 10.00 | Overcast | FEW019 OVC055 | 51.8 | 48.2 | 88% | 30.13 | 0.0 | |||||||
| 30 | 05:55 | Calm | 10.00 | Overcast | SCT043 BKN050 OVC055 | 53.6 | 50 | 88% | 30.13 | 0.0 | |||||||
| 30 | 05:35 | Calm | 10.00 | Overcast | OVC042 | 51.8 | 50 | 94% | 30.13 | 0.0 | |||||||
| 30 | 05:15 | Calm | 10.00 | Overcast | BKN042 OVC050 | 53.6 | 50 | 88% | 30.13 | 0.0 | |||||||
| 30 | 04:55 | Calm | 10.00 | Overcast | BKN044 OVC050 | 53.6 | 50 | 88% | 30.13 | 0.0 | |||||||
| 30 | 04:35 | Calm | 10.00 | Overcast | OVC047 | 53.6 | 50 | 88% | 30.12 | 0.0 | |||||||
| 30 | 04:15 | Calm | 10.00 | Overcast | OVC044 | 51.8 | 50 | 94% | 30.12 | 0.0 | |||||||
| 30 | 03:55 | Calm | 10.00 | Overcast | OVC043 | 51.8 | 50 | 94% | 30.13 | 0.0 | |||||||
| 30 | 03:35 | Calm | 10.00 | Overcast | OVC045 | 50 | 50 | 100% | 30.13 | 0.0 | |||||||
| 30 | 03:15 | Calm | 10.00 | Overcast | SCT021 BKN036 OVC046 | 50 | 50 | 100% | 30.13 | 0.0 | |||||||
| 30 | 02:55 | Calm | 10.00 | Mostly Cloudy | FEW023 SCT029 BKN036 | 50 | 50 | 100% | 30.12 | 0.0 | |||||||
| 30 | 02:35 | Calm | 10.00 | Mostly Cloudy | FEW025 BKN037 BKN045 | 51.8 | 50 | 94% | 30.12 | 0.0 | |||||||
| 30 | 02:15 | Calm | 10.00 | Mostly Cloudy | BKN037 BKN047 | 51.8 | 50 | 94% | 30.12 | 0.0 | |||||||
| 30 | 01:55 | Calm | 10.00 | Partly Cloudy | SCT039 SCT047 | 51.8 | 50 | 94% | 30.13 | 0.0 | |||||||
| 30 | 01:35 | Calm | 10.00 | Fair | CLR | 53.6 | 50 | 88% | 30.12 | 0.0 | |||||||
| 30 | 01:15 | Calm | 10.00 | Fair | CLR | 55.4 | 51.8 | 88% | 30.12 | 0.0 | |||||||
| 30 | 00:55 | Calm | 10.00 | A Few Clouds | FEW043 | 55.4 | 51.8 | 88% | 30.12 | 0.0 | |||||||
| 30 | 00:35 | Calm | 10.00 | Fair | CLR | 55.4 | 51.8 | 88% | 30.12 | 0.0 | |||||||
| 30 | 00:15 | Calm | 10.00 | Fair | CLR | 55.4 | 51.8 | 88% | 30.12 | 0.0 | |||||||
| 29 | 23:55 | Calm | 10.00 | Fair | CLR | 55.4 | 51.8 | 88% | 30.12 | 0.0 | |||||||
| 29 | 23:35 | Calm | 10.00 | Partly Cloudy | FEW037 FEW043 SCT070 | 57.2 | 50 | 77% | 30.12 | 0.0 | |||||||
| 29 | 23:15 | Calm | 10.00 | Mostly Cloudy | FEW040 SCT050 BKN075 | 57.2 | 51.8 | 82% | 30.12 | 0.0 | |||||||
| 29 | 22:55 | Calm | 10.00 | Mostly Cloudy | FEW047 FEW050 BKN075 | 57.2 | 50 | 77% | 30.12 | 0.0 | |||||||
| 29 | 22:35 | Calm | 10.00 | Partly Cloudy | FEW046 SCT075 | 57.2 | 50 | 77% | 30.12 | 0.0 | |||||||
| 29 | 22:15 | Calm | 0.00 | Mostly Cloudy | FEW038 FEW045 BKN075 | 57.2 | 50 | 77% | 30.12 | 0.0 | |||||||
| 29 | 21:55 | Calm | 10.00 | Partly Cloudy | FEW046 SCT075 | 59 | 50 | 72% | 30.12 | 0.0 | |||||||
| 29 | 21:35 | Calm | 10.00 | A Few Clouds | FEW048 FEW055 FEW070 | 59 | 50 | 72% | 30.12 | 0.0 | |||||||
| 29 | 21:15 | Calm | 10.00 | A Few Clouds | FEW046 | 59 | 50 | 72% | 30.11 | 0.0 | |||||||
| 29 | 20:55 | Calm | 10.00 | Fair | CLR | 60.8 | 48.2 | 63% | 30.1 | 0.0 | |||||||
| 29 | 20:35 | Calm | 10.00 | Fair | CLR | 60.8 | 48.2 | 63% | 30.09 | 0.0 | |||||||
| 29 | 20:15 | SW 3 | 10.00 | Fair | CLR | 62.6 | 46.4 | 56% | 30.09 | 0.0 | |||||||
| 29 | 19:35 | Vrbl 6 G 14 | 10.00 | Mostly Cloudy | BKN085 | 66.2 | 46.4 | 49% | 30.07 | 0.0 | |||||||
| 29 | 19:15 | Vrbl 7 | 10.00 | Overcast | OVC090 | 66.2 | 46.4 | 49% | 30.07 | 0.0 | |||||||
| 29 | 18:55 | Calm | 10.00 | Overcast | FEW075 OVC090 | 66.2 | 46.4 | 49% | 30.07 | 0.0 | |||||||
| 29 | 18:35 | Vrbl 6 G 14 | 10.00 | Mostly Cloudy | FEW050 SCT060 BKN075 | 68 | 46.4 | 46% | 30.07 | 0.0 | |||||||
| 29 | 18:15 | Calm | 10.00 | Overcast | SCT050 BKN070 OVC080 | 68 | 46.4 | 46% | 30.07 | 0.0 | |||||||
| 29 | 17:55 | W 5 G 13 | 10.00 | Overcast | SCT050 SCT060 OVC080 | 68 | 46.4 | 46% | 30.07 | 0.0 | |||||||
| 29 | 17:35 | W 7 G 14 | 10.00 | Partly Cloudy | FEW050 SCT065 | 68 | 46.4 | 46% | 30.07 | 0.0 | |||||||
| 29 | 17:15 | Vrbl 5 G 13 | 10.00 | Partly Cloudy | FEW050 FEW055 SCT070 | 69.8 | 48.2 | 46% | 30.06 | 0.0 | |||||||
| 29 | 16:55 | W 7 G 14 | 10.00 | Overcast | SCT044 BKN070 OVC080 | 68 | 48.2 | 49% | 30.06 | 0.0 | |||||||
| 29 | 16:35 | Calm | 10.00 | Mostly Cloudy | SCT046 SCT060 BKN080 | 66.2 | 53.6 | 64% | 30.06 | 0.0 | |||||||
| 29 | 16:15 | Vrbl 3 | 10.00 | A Few Clouds | FEW055 FEW090 | 68 | 53.6 | 60% | 30.06 | 0.0 | |||||||
| 29 | 15:55 | Calm | 10.00 | A Few Clouds | FEW090 | 66.2 | 53.6 | 64% | 30.07 | 0.0 | |||||||
| 29 | 15:35 | Calm | 10.00 | Partly Cloudy | SCT065 SCT075 | 66.2 | 59 | 78% | 30.07 | 0.0 | |||||||
| 29 | 15:15 | Calm | 9.00 | Mostly Cloudy | SCT065 SCT075 BKN085 | 62.6 | 59 | 88% | 30.07 | 0.0 | |||||||
| 29 | 14:35 | Calm | 10.00 | Mostly Cloudy | FEW027 FEW035 BKN047 | 60.8 | 59 | 94% | 30.08 | 0.0 | |||||||
| 29 | 14:15 | Calm | 3.00 | Light Drizzle | SCT030 BKN045 OVC075 | 59 | 57.2 | 94% | 30.08 | 0.0 | |||||||
| 29 | 13:55 | Calm | 10.00 | Mostly Cloudy | FEW029 SCT043 BKN060 | 62.6 | 51.8 | 68% | 30.07 | 0.0 | |||||||
| Date | Time (pdt) | Wind (mph) | Vis. (mi.) | Weather | Sky Cond. | Air | Dwpt | Max. | Min. | Relative Humidity | Wind Chill (°F) | Heat Index (°F) | altimeter (in) | sea level (mb) | 1 hr | 3 hr | 6 hr |
| 6 hour | |||||||||||||||||
| Temperature (ºF) | Pressure | Precipitation (in) | |||||||||||||||